createdAt,value
2022-09-10T00:01:18.742Z,101311.28
2022-09-10T00:03:46.514Z,101318.50
2022-09-10T00:06:14.184Z,101315.97
2022-09-10T00:08:41.082Z,101319.53
2022-09-10T00:11:10.281Z,101314.41
2022-09-10T00:13:39.510Z,101318.78
2022-09-10T00:16:09.633Z,101314.41
2022-09-10T00:18:37.441Z,101320.47
2022-09-10T00:21:14.352Z,101313.53
2022-09-10T00:23:45.989Z,101311.75
2022-09-10T00:26:23.480Z,101313.66
2022-09-10T00:28:52.138Z,101310.13
2022-09-10T00:31:20.201Z,101308.50
2022-09-10T00:33:47.132Z,101313.94
2022-09-10T00:36:26.013Z,101307.75
2022-09-10T00:38:55.233Z,101311.34
2022-09-10T00:41:25.059Z,101304.25
2022-09-10T00:44:35.546Z,101316.59
2022-09-10T00:47:02.767Z,101318.38
2022-09-10T00:49:42.388Z,101316.66
2022-09-10T00:52:10.100Z,101315.81
2022-09-10T00:54:39.461Z,101317.72
2022-09-10T00:57:12.775Z,101316.84
2022-09-10T00:59:47.056Z,101318.56
2022-09-10T01:02:15.235Z,101321.13
2022-09-10T01:04:43.575Z,101318.56
2022-09-10T01:07:14.055Z,101326.63
2022-09-10T01:09:41.289Z,101323.13
2022-09-10T01:12:16.326Z,101328.53
2022-09-10T01:14:58.247Z,101329.38
2022-09-10T01:17:45.279Z,101328.44
2022-09-10T01:20:36.362Z,101327.66
2022-09-10T01:23:41.643Z,101327.00
2022-09-10T01:26:52.253Z,101337.47
2022-09-10T01:29:41.954Z,101330.53
2022-09-10T01:32:15.718Z,101334.88
2022-09-10T01:34:59.498Z,101338.50
2022-09-10T01:37:30.448Z,101341.22
2022-09-10T01:39:59.373Z,101339.72
2022-09-10T01:42:28.205Z,101342.25
2022-09-10T01:45:00.205Z,101356.41
2022-09-10T01:47:51.785Z,101346.66
2022-09-10T01:50:30.683Z,101347.56
2022-09-10T01:53:21.020Z,101350.34
2022-09-10T01:55:58.827Z,101359.16
2022-09-10T01:58:38.474Z,101361.03
2022-09-10T02:01:16.999Z,101360.19
2022-09-10T02:03:48.257Z,101362.84
2022-09-10T02:06:19.705Z,101362.09
2022-09-10T02:08:50.251Z,101362.09
2022-09-10T02:11:17.378Z,101365.59
2022-09-10T02:13:44.397Z,101367.31
2022-09-10T02:16:31.486Z,101365.59
2022-09-10T02:18:59.966Z,101363.00
2022-09-10T02:21:27.070Z,101369.19
2022-09-10T02:24:04.565Z,101368.31
2022-09-10T02:26:35.366Z,101368.31
2022-09-10T02:29:02.321Z,101376.41
2022-09-10T02:31:29.984Z,101378.19
2022-09-10T02:33:57.018Z,101376.41
2022-09-10T02:36:26.425Z,101381.72
2022-09-10T02:38:53.952Z,101368.69
2022-09-10T02:41:22.003Z,101370.31
2022-09-10T02:43:49.054Z,101376.56
2022-09-10T02:46:15.971Z,101370.41
2022-09-10T02:48:42.865Z,101375.72
2022-09-10T02:51:09.801Z,101374.88
2022-09-10T02:53:36.587Z,101375.72
2022-09-10T02:56:03.458Z,101375.72
2022-09-10T02:58:34.337Z,101369.59
2022-09-10T03:01:10.223Z,101371.41
2022-09-10T03:03:38.211Z,101356.41
2022-09-10T03:06:05.691Z,101363.53
2022-09-10T03:08:32.939Z,101360.94
2022-09-10T03:11:00.150Z,101365.41
2022-09-10T03:13:28.243Z,101360.94
2022-09-10T03:15:59.093Z,101365.41
2022-09-10T03:18:28.400Z,101362.84
2022-09-10T03:20:55.352Z,101362.84
2022-09-10T03:23:22.116Z,101362.84
2022-09-10T03:25:49.892Z,101363.81
2022-09-10T03:28:16.961Z,101362.06
2022-09-10T03:30:43.828Z,101371.84
2022-09-10T03:33:11.974Z,101366.78
2022-09-10T03:35:39.060Z,101366.63
2022-09-10T03:38:06.101Z,101368.31
2022-09-10T03:40:34.347Z,101366.63
2022-09-10T03:43:01.459Z,101371.94
2022-09-10T03:45:28.868Z,101366.63
2022-09-10T03:47:55.751Z,101363.97
2022-09-10T03:50:22.690Z,101366.63
2022-09-10T03:52:50.333Z,101364.91
2022-09-10T03:55:18.223Z,101369.34
2022-09-10T03:57:45.923Z,101376.50
2022-09-10T04:00:12.991Z,101372.97
2022-09-10T04:02:41.906Z,101372.97
2022-09-10T04:05:09.458Z,101375.69
2022-09-10T04:07:37.024Z,101370.38
2022-09-10T04:10:04.429Z,101381.00
2022-09-10T04:12:31.226Z,101371.25
2022-09-10T04:14:58.153Z,101375.69
2022-09-10T04:17:25.633Z,101376.66
2022-09-10T04:19:52.453Z,101373.22
2022-09-10T04:22:19.271Z,101376.72
2022-09-10T04:24:46.099Z,101371.41
2022-09-10T04:27:12.966Z,101389.16
2022-09-10T04:29:39.777Z,101381.19
2022-09-10T04:32:07.633Z,101376.72
2022-09-10T04:34:34.534Z,101386.50
2022-09-10T04:37:01.666Z,101386.50
2022-09-10T04:39:28.490Z,101383.94
2022-09-10T04:41:55.276Z,101393.69
2022-09-10T04:44:22.120Z,101395.59
2022-09-10T04:46:49.052Z,101398.16
2022-09-10T04:49:15.860Z,101399.03
2022-09-10T04:51:42.805Z,101398.16
2022-09-10T04:54:13.735Z,101392.00
2022-09-10T04:56:41.160Z,101400.91
2022-09-10T04:59:07.997Z,101401.78
2022-09-10T05:01:35.459Z,101408.03
2022-09-10T05:04:03.470Z,101404.50
2022-09-10T05:06:30.320Z,101408.03
2022-09-10T05:08:57.147Z,101408.03
2022-09-10T05:11:24.025Z,101407.94
2022-09-10T05:13:51.058Z,101410.69
2022-09-10T05:16:17.953Z,101417.72
2022-09-10T05:18:44.792Z,101420.44
2022-09-10T05:21:11.685Z,101420.44
2022-09-10T05:23:39.745Z,101422.34
2022-09-10T05:26:06.733Z,101421.25
2022-09-10T05:28:33.614Z,101428.19
2022-09-10T05:31:00.382Z,101430.91
2022-09-10T05:33:27.262Z,101430.75
2022-09-10T05:35:54.063Z,101425.41
2022-09-10T05:38:20.964Z,101428.84
2022-09-10T05:40:48.426Z,101437.69
2022-09-10T05:43:15.622Z,101435.88
2022-09-10T05:45:42.604Z,101442.13
2022-09-10T05:48:09.508Z,101433.41
2022-09-10T05:50:38.465Z,101446.50
2022-09-10T05:53:05.383Z,101438.53
2022-09-10T05:55:33.451Z,101440.34
2022-09-10T05:58:00.281Z,101444.78
2022-09-10T06:00:27.130Z,101440.34
2022-09-10T06:02:54.045Z,101441.19
2022-09-10T06:05:23.999Z,101448.25
2022-09-10T06:07:51.163Z,101442.94
2022-09-10T06:10:18.060Z,101450.91
2022-09-10T06:12:49.954Z,101455.34
2022-09-10T06:15:16.851Z,101453.56
2022-09-10T06:17:43.721Z,101453.56
2022-09-10T06:20:14.094Z,101460.66
2022-09-10T06:22:41.000Z,101465.88
2022-09-10T06:25:08.404Z,101465.00
2022-09-10T06:27:35.356Z,101471.19
2022-09-10T06:30:02.215Z,101469.50
2022-09-10T06:32:29.080Z,101476.50
2022-09-10T06:34:55.976Z,101476.50
2022-09-10T06:37:23.215Z,101465.13
2022-09-10T06:39:50.202Z,101472.06
2022-09-10T06:42:17.287Z,101476.50
2022-09-10T06:44:44.609Z,101484.41
2022-09-10T06:47:55.463Z,101481.91
2022-09-10T06:49:58.684Z,101485.34
2022-09-10T06:52:25.909Z,101488.00
2022-09-10T06:54:53.351Z,101485.25
2022-09-10T06:57:20.309Z,101495.88
2022-09-10T06:59:47.872Z,101486.97
2022-09-10T07:02:15.612Z,101490.50
2022-09-10T07:04:42.541Z,101491.41
2022-09-10T07:07:09.943Z,101493.16
2022-09-10T07:09:36.867Z,101499.31
2022-09-10T07:12:05.111Z,101494.00
2022-09-10T07:14:33.441Z,101497.44
2022-09-10T07:17:00.338Z,101500.16
2022-09-10T07:19:27.301Z,101501.03
2022-09-10T07:21:54.160Z,101500.09
2022-09-10T07:24:21.789Z,101500.84
2022-09-10T07:26:48.756Z,101500.84
2022-09-10T07:29:15.590Z,101498.13
2022-09-10T07:31:42.439Z,101505.16
2022-09-10T07:34:09.498Z,101497.28
2022-09-10T07:36:36.417Z,101513.91
2022-09-10T07:39:04.629Z,101499.78
2022-09-10T07:41:34.569Z,101509.47
2022-09-10T07:44:01.442Z,101511.25
2022-09-10T07:46:28.803Z,101514.63
2022-09-10T07:48:58.440Z,101511.03
2022-09-10T07:51:28.129Z,101509.13
2022-09-10T07:53:59.627Z,101517.88
2022-09-10T07:56:26.980Z,101516.94
2022-09-10T07:58:55.230Z,101522.94
2022-09-10T08:01:22.124Z,101522.84
2022-09-10T08:03:49.185Z,101521.81
2022-09-10T08:06:17.031Z,101519.06
2022-09-10T08:08:44.151Z,101518.03
2022-09-10T08:11:17.734Z,101526.88
2022-09-10T08:13:47.516Z,101518.75
2022-09-10T08:16:17.750Z,101521.22
2022-09-10T08:18:45.653Z,101511.34
2022-09-10T08:21:12.802Z,101517.38
2022-09-10T08:23:39.966Z,101525.25
2022-09-10T08:26:08.590Z,101521.50
2022-09-10T08:28:36.702Z,101517.88
2022-09-10T08:31:09.385Z,101516.00
2022-09-10T08:33:39.794Z,101520.34
2022-09-10T08:36:09.115Z,101524.75
2022-09-10T08:38:40.203Z,101530.91
2022-09-10T08:41:14.126Z,101523.59
2022-09-10T08:43:49.010Z,101512.03
2022-09-10T08:46:28.079Z,101525.91
2022-09-10T08:49:07.105Z,101515.28
2022-09-10T08:51:44.726Z,101511.69
2022-09-10T08:54:21.879Z,101507.22
2022-09-10T08:56:50.084Z,101508.94
2022-09-10T08:59:31.425Z,101515.00
2022-09-10T09:02:03.958Z,101505.34
2022-09-10T09:05:03.473Z,101520.09
2022-09-10T09:07:39.954Z,101525.13
2022-09-10T09:10:24.840Z,101523.16
2022-09-10T09:13:10.002Z,101522.03
2022-09-10T09:15:51.882Z,101520.91
2022-09-10T09:18:28.788Z,101517.38
2022-09-10T09:21:01.319Z,101512.59
2022-09-10T09:23:57.063Z,101516.13
2022-09-10T09:26:36.037Z,101514.22
2022-09-10T09:29:13.216Z,101519.47
2022-09-10T09:31:50.504Z,101524.50
2022-09-10T09:34:32.857Z,101524.34
2022-09-10T09:37:03.982Z,101523.28
2022-09-10T09:40:02.766Z,101529.38
2022-09-10T09:42:45.938Z,101519.59
2022-09-10T09:45:23.761Z,101526.28
2022-09-10T09:47:51.401Z,101522.69
2022-09-10T09:50:21.282Z,101524.22
2022-09-10T09:52:48.555Z,101532.03
2022-09-10T09:55:43.566Z,101525.59
2022-09-10T09:58:19.715Z,101526.34
2022-09-10T10:00:48.782Z,101533.22
2022-09-10T10:03:22.692Z,101531.31
2022-09-10T10:05:49.667Z,101534.75
2022-09-10T10:08:42.626Z,101526.66
2022-09-10T10:11:12.155Z,101530.00
2022-09-10T10:13:42.460Z,101535.91
2022-09-10T10:16:24.158Z,101530.56
2022-09-10T10:18:51.301Z,101530.22
2022-09-10T10:21:30.611Z,101530.97
2022-09-10T10:23:57.558Z,101529.06
2022-09-10T10:26:32.833Z,101521.06
2022-09-10T10:29:06.677Z,101529.66
2022-09-10T10:31:47.709Z,101527.75
2022-09-10T10:34:15.456Z,101523.28
2022-09-10T10:36:58.460Z,101523.00
2022-09-10T10:39:46.662Z,101513.97
2022-09-10T10:42:23.262Z,101521.66
2022-09-10T10:44:59.395Z,101518.13
2022-09-10T10:47:43.562Z,101524.91
2022-09-10T10:50:16.610Z,101522.34
2022-09-10T10:53:15.058Z,101518.81
2022-09-10T10:55:59.842Z,101517.69
2022-09-10T10:58:56.261Z,101519.09
2022-09-10T11:01:30.361Z,101509.28
2022-09-10T11:04:18.983Z,101513.56
2022-09-10T11:06:53.364Z,101506.25
2022-09-10T11:09:39.291Z,101523.97
2022-09-10T11:12:11.699Z,101515.97
2022-09-10T11:14:48.935Z,101522.91
2022-09-10T11:17:19.875Z,101516.63
2022-09-10T11:20:34.778Z,101515.78
2022-09-10T11:23:04.383Z,101527.38
2022-09-10T11:25:37.644Z,101513.94
2022-09-10T11:28:14.530Z,101511.22
2022-09-10T11:30:48.409Z,101504.91
2022-09-10T11:33:23.509Z,101510.22
2022-09-10T11:36:05.834Z,101505.88
2022-09-10T11:38:58.693Z,101505.00
2022-09-10T11:41:30.300Z,101512.91
2022-09-10T11:44:11.087Z,101511.97
2022-09-10T11:46:37.997Z,101514.91
2022-09-10T11:49:22.088Z,101511.22
2022-09-10T11:51:49.890Z,101512.16
2022-09-10T11:54:27.410Z,101510.22
2022-09-10T11:57:28.377Z,101515.56
2022-09-10T11:59:55.225Z,101518.16
2022-09-10T12:02:48.096Z,101521.69
2022-09-10T12:05:20.963Z,101518.06
2022-09-10T12:08:04.211Z,101526.00
2022-09-10T12:10:54.379Z,101514.63
2022-09-10T12:13:22.873Z,101512.81
2022-09-10T12:16:02.878Z,101507.50
2022-09-10T12:18:42.788Z,101495.97
2022-09-10T12:21:22.244Z,101509.13
2022-09-10T12:23:49.819Z,101506.47
2022-09-10T12:26:20.135Z,101513.59
2022-09-10T12:28:53.126Z,101513.75
2022-09-10T12:31:22.506Z,101508.63
2022-09-10T12:33:51.492Z,101514.13
2022-09-10T12:36:27.758Z,101514.34
2022-09-10T12:39:20.441Z,101510.81
2022-09-10T12:41:47.424Z,101504.94
2022-09-10T12:44:36.502Z,101505.88
2022-09-10T12:47:15.515Z,101509.28
2022-09-10T12:49:49.583Z,101518.25
2022-09-10T12:52:34.965Z,101511.31
2022-09-10T12:55:01.825Z,101521.00
2022-09-10T12:57:37.705Z,101514.91
2022-09-10T13:00:13.494Z,101522.16
2022-09-10T13:02:52.706Z,101521.19
2022-09-10T13:05:23.399Z,101524.91
2022-09-10T13:08:02.223Z,101521.78
2022-09-10T13:10:30.312Z,101527.38
2022-09-10T13:13:07.648Z,101530.13
2022-09-10T13:15:37.725Z,101523.28
2022-09-10T13:18:24.237Z,101532.22
2022-09-10T13:20:51.592Z,101534.03
2022-09-10T13:23:18.554Z,101534.88
2022-09-10T13:25:48.085Z,101528.63
2022-09-10T13:28:36.099Z,101541.06
2022-09-10T13:31:17.746Z,101531.53
2022-09-10T13:33:52.232Z,101525.28
2022-09-10T13:36:25.304Z,101533.09
2022-09-10T13:39:19.564Z,101529.44
2022-09-10T13:42:11.135Z,101529.38
2022-09-10T13:44:50.546Z,101529.25
2022-09-10T13:47:22.848Z,101526.72
2022-09-10T13:50:25.625Z,101526.59
2022-09-10T13:53:00.417Z,101532.72
2022-09-10T13:55:30.617Z,101525.66
2022-09-10T13:58:19.360Z,101526.59
2022-09-10T14:00:54.438Z,101534.59
2022-09-10T14:03:31.841Z,101522.25
2022-09-10T14:06:06.037Z,101520.53
2022-09-10T14:08:40.162Z,101520.53
2022-09-10T14:11:07.825Z,101522.31
2022-09-10T14:13:41.877Z,101516.06
2022-09-10T14:16:13.863Z,101515.94
2022-09-10T14:18:58.715Z,101515.00
2022-09-10T14:21:29.933Z,101520.34
2022-09-10T14:24:02.082Z,101520.34
2022-09-10T14:26:34.112Z,101520.34
2022-09-10T14:29:25.031Z,101520.34
2022-09-10T14:31:52.521Z,101517.56
2022-09-10T14:34:34.345Z,101522.06
2022-09-10T14:37:22.647Z,101516.72
2022-09-10T14:39:49.836Z,101526.41
2022-09-10T14:42:27.624Z,101524.63
2022-09-10T14:44:55.050Z,101522.06
2022-09-10T14:47:37.728Z,101530.81
2022-09-10T14:50:40.476Z,101529.09
2022-09-10T14:53:07.552Z,101530.81
2022-09-10T14:55:36.991Z,101531.66
2022-09-10T14:58:05.947Z,101535.09
2022-09-10T15:00:34.582Z,101529.75
2022-09-10T15:03:02.742Z,101532.31
2022-09-10T15:05:30.371Z,101525.19
2022-09-10T15:07:57.881Z,101533.06
2022-09-10T15:10:25.217Z,101525.47
2022-09-10T15:12:53.694Z,101523.94
2022-09-10T15:15:20.911Z,101523.94
2022-09-10T15:17:48.481Z,101515.94
2022-09-10T15:20:17.271Z,101515.94
2022-09-10T15:22:45.424Z,101521.19
2022-09-10T15:25:39.425Z,101518.78
2022-09-10T15:28:08.101Z,101520.63
2022-09-10T15:30:36.515Z,101521.44
2022-09-10T15:33:05.294Z,101512.81
2022-09-10T15:35:32.905Z,101519.84
2022-09-10T15:38:03.520Z,101527.00
2022-09-10T15:40:31.931Z,101524.41
2022-09-10T15:42:59.681Z,101521.84
2022-09-10T15:45:27.393Z,101520.03
2022-09-10T15:47:54.661Z,101514.69
2022-09-10T15:50:21.786Z,101504.91
2022-09-10T15:52:48.716Z,101512.81
2022-09-10T15:55:15.752Z,101506.63
2022-09-10T15:57:42.674Z,101501.28
2022-09-10T16:00:10.482Z,101504.91
2022-09-10T16:02:37.610Z,101503.09
2022-09-10T16:05:05.690Z,101500.63
2022-09-10T16:07:32.620Z,101504.16
2022-09-10T16:09:59.660Z,101501.47
2022-09-10T16:12:27.752Z,101500.63
2022-09-10T16:14:54.934Z,101503.22
2022-09-10T16:17:21.927Z,101504.16
2022-09-10T16:19:49.977Z,101502.41
2022-09-10T16:22:20.576Z,101505.09
2022-09-10T16:24:48.335Z,101507.75
2022-09-10T16:27:17.998Z,101509.66
2022-09-10T16:29:46.726Z,101500.81
2022-09-10T16:32:14.187Z,101510.69
2022-09-10T16:34:41.446Z,101501.84
2022-09-10T16:37:08.946Z,101510.81
2022-09-10T16:39:36.011Z,101511.66
2022-09-10T16:42:03.336Z,101509.09
2022-09-10T16:44:30.771Z,101507.47
2022-09-10T16:46:59.667Z,101518.88
2022-09-10T16:49:27.778Z,101511.75
2022-09-10T16:51:55.049Z,101514.59
2022-09-10T16:54:22.762Z,101515.63
2022-09-10T16:56:50.821Z,101516.50
2022-09-10T16:59:18.096Z,101509.56
2022-09-10T17:01:48.209Z,101507.94
2022-09-10T17:04:24.621Z,101507.19
2022-09-10T17:06:55.745Z,101505.44
2022-09-10T17:09:23.004Z,101501.06
2022-09-10T17:11:49.926Z,101501.28
2022-09-10T17:14:16.957Z,101505.91
2022-09-10T17:16:44.610Z,101512.16
2022-09-10T17:19:21.019Z,101514.84
2022-09-10T17:21:52.811Z,101521.19
2022-09-10T17:24:23.073Z,101524.84
2022-09-10T17:26:51.649Z,101516.06
2022-09-10T17:29:24.172Z,101519.69
2022-09-10T17:31:52.434Z,101523.28
2022-09-10T17:34:24.963Z,101520.78
2022-09-10T17:36:52.210Z,101520.72
2022-09-10T17:39:19.548Z,101528.88
2022-09-10T17:41:46.696Z,101539.59
2022-09-10T17:44:14.906Z,101537.88
2022-09-10T17:46:43.278Z,101532.72
2022-09-10T17:49:13.763Z,101533.50
2022-09-10T17:51:41.295Z,101525.69
2022-09-10T17:54:08.741Z,101522.44
2022-09-10T17:56:38.269Z,101525.84
2022-09-10T17:59:06.425Z,101525.84
2022-09-10T18:01:39.298Z,101533.78
2022-09-10T18:04:09.117Z,101534.97
2022-09-10T18:06:38.067Z,101537.19
2022-09-10T18:09:06.375Z,101541.16
2022-09-10T18:11:38.062Z,101553.16
2022-09-10T18:14:05.860Z,101544.97
2022-09-10T18:16:34.773Z,101549.19
2022-09-10T18:19:13.543Z,101547.28
2022-09-10T18:21:44.250Z,101550.72
2022-09-10T18:24:23.038Z,101549.56
2022-09-10T18:26:51.666Z,101545.03
2022-09-10T18:29:22.005Z,101546.66
2022-09-10T18:31:54.850Z,101554.47
2022-09-10T18:34:24.964Z,101548.09
2022-09-10T18:36:58.258Z,101557.78
2022-09-10T18:39:30.754Z,101556.56
2022-09-10T18:41:59.366Z,101565.41
2022-09-10T18:44:29.147Z,101565.59
2022-09-10T18:46:56.414Z,101569.69
2022-09-10T18:49:24.979Z,101569.69
2022-09-10T18:51:54.365Z,101569.63
2022-09-10T18:54:22.756Z,101575.72
2022-09-10T18:56:50.826Z,101578.25
2022-09-10T18:59:22.332Z,101582.72
2022-09-10T19:01:51.563Z,101581.03
2022-09-10T19:04:24.448Z,101587.22
2022-09-10T19:06:52.083Z,101580.16
2022-09-10T19:09:24.659Z,101590.72
2022-09-10T19:11:56.266Z,101597.78
2022-09-10T19:14:31.464Z,101588.06
2022-09-10T19:17:00.729Z,101594.94
2022-09-10T19:19:36.885Z,101591.41
2022-09-10T19:22:10.611Z,101594.00
2022-09-10T19:24:53.959Z,101596.56
2022-09-10T19:27:22.601Z,101605.41
2022-09-10T19:29:50.666Z,101602.63
2022-09-10T19:32:20.249Z,101598.34
2022-09-10T19:34:51.405Z,101601.88
2022-09-10T19:37:27.059Z,101603.50
2022-09-10T19:39:57.862Z,101605.13
2022-09-10T19:42:28.214Z,101607.78
2022-09-10T19:44:55.321Z,101601.59
2022-09-10T19:47:22.993Z,101608.66
2022-09-10T19:49:51.563Z,101610.56
2022-09-10T19:52:21.268Z,101606.75
2022-09-10T19:54:50.020Z,101604.84
2022-09-10T19:57:18.267Z,101607.50
2022-09-10T19:59:46.089Z,101598.75
2022-09-10T20:02:14.081Z,101606.00
2022-09-10T20:04:41.590Z,101609.59
2022-09-10T20:07:09.382Z,101607.91
2022-09-10T20:09:40.244Z,101610.56
2022-09-10T20:12:10.879Z,101614.16
2022-09-10T20:14:38.946Z,101612.44
2022-09-10T20:17:06.490Z,101603.59
2022-09-10T20:19:34.454Z,101603.59
2022-09-10T20:22:01.905Z,101598.34
2022-09-10T20:24:29.273Z,101592.16
2022-09-10T20:26:57.465Z,101596.66
2022-09-10T20:29:26.103Z,101591.31
2022-09-10T20:31:53.437Z,101591.31
2022-09-10T20:34:23.011Z,101590.47
2022-09-10T20:36:52.076Z,101597.59
2022-09-10T20:39:22.287Z,101597.66
2022-09-10T20:41:49.818Z,101596.84
2022-09-10T20:44:18.454Z,101598.63
2022-09-10T20:46:47.534Z,101599.50
2022-09-10T20:49:16.711Z,101601.19
2022-09-10T20:51:46.153Z,101602.16
2022-09-10T20:54:17.346Z,101597.78
2022-09-10T20:56:46.216Z,101605.75
2022-09-10T20:59:16.054Z,101605.75
2022-09-10T21:01:46.751Z,101618.31
2022-09-10T21:04:14.673Z,101620.03
2022-09-10T21:06:43.215Z,101613.88
2022-09-10T21:09:11.565Z,101606.81
2022-09-10T21:11:39.378Z,101618.31
2022-09-10T21:14:08.558Z,101616.59
2022-09-10T21:16:38.661Z,101613.00
2022-09-10T21:19:11.630Z,101621.00
2022-09-10T21:21:43.052Z,101607.50
2022-09-10T21:24:28.437Z,101612.81
2022-09-10T21:26:56.340Z,101618.03
2022-09-10T21:29:26.978Z,101609.13
2022-09-10T21:31:56.843Z,101618.91
2022-09-10T21:34:24.168Z,101605.59
2022-09-10T21:37:04.914Z,101604.91
2022-09-10T21:39:32.210Z,101594.34
2022-09-10T21:42:00.584Z,101596.34
2022-09-10T21:44:28.664Z,101600.03
2022-09-10T21:46:56.005Z,101592.97
2022-09-10T21:49:23.223Z,101602.00
2022-09-10T21:51:50.789Z,101592.41
2022-09-10T21:54:21.231Z,101597.72
2022-09-10T21:56:52.369Z,101581.84
2022-09-10T21:59:21.974Z,101586.31
2022-09-10T22:01:50.279Z,101603.22
2022-09-10T22:04:22.465Z,101598.94
2022-09-10T22:06:51.170Z,101603.44
2022-09-10T22:09:20.271Z,101600.84
2022-09-10T22:11:50.854Z,101598.28
2022-09-10T22:14:22.287Z,101591.25
2022-09-10T22:16:49.659Z,101591.34
2022-09-10T22:19:23.865Z,101587.81
2022-09-10T22:21:51.809Z,101586.09
2022-09-10T22:24:19.464Z,101588.84
2022-09-10T22:26:47.876Z,101595.97
2022-09-10T22:29:20.180Z,101595.97
2022-09-10T22:31:48.297Z,101591.59
2022-09-10T22:34:16.958Z,101590.06
2022-09-10T22:36:46.155Z,101584.75
2022-09-10T22:39:24.841Z,101593.50
2022-09-10T22:41:52.460Z,101590.06
2022-09-10T22:44:20.569Z,101587.41
2022-09-10T22:46:48.395Z,101590.06
2022-09-10T22:49:20.344Z,101593.66
2022-09-10T22:51:48.152Z,101587.47
2022-09-10T22:54:15.537Z,101588.44
2022-09-10T22:56:42.468Z,101585.84
2022-09-10T22:59:14.087Z,101585.84
2022-09-10T23:01:43.800Z,101586.81
2022-09-10T23:04:11.991Z,101595.75
2022-09-10T23:06:39.310Z,101598.41
2022-09-10T23:09:16.978Z,101594.06
2022-09-10T23:11:44.949Z,101594.06
2022-09-10T23:14:16.192Z,101585.28
2022-09-10T23:16:46.537Z,101585.28
2022-09-10T23:19:17.442Z,101583.56
2022-09-10T23:21:47.872Z,101585.28
2022-09-10T23:24:17.432Z,101581.84
2022-09-10T23:26:44.975Z,101581.09
2022-09-10T23:29:13.247Z,101574.78
2022-09-10T23:31:41.401Z,101575.75
2022-09-10T23:34:12.068Z,101578.41
2022-09-10T23:36:41.484Z,101575.84
2022-09-10T23:39:12.767Z,101569.69
2022-09-10T23:41:41.470Z,101575.00
2022-09-10T23:44:10.154Z,101566.16
2022-09-10T23:46:38.017Z,101566.22
2022-09-10T23:49:05.866Z,101559.16
2022-09-10T23:51:33.103Z,101564.50
2022-09-10T23:54:00.737Z,101559.16
2022-09-10T23:56:28.781Z,101560.03
2022-09-10T23:58:56.583Z,101553.84
